createdAt,value
2018-03-27T00:01:21.904Z,48.80
2018-03-27T00:03:49.456Z,51.03
2018-03-27T00:06:17.030Z,53.70
2018-03-27T00:08:44.623Z,45.50
2018-03-27T00:11:12.564Z,47.20
2018-03-27T00:13:40.219Z,45.80
2018-03-27T00:16:07.861Z,46.00
2018-03-27T00:18:35.418Z,45.33
2018-03-27T00:21:03.372Z,45.23
2018-03-27T00:23:31.152Z,43.93
2018-03-27T00:25:58.779Z,46.47
2018-03-27T00:28:39.150Z,43.37
2018-03-27T00:31:19.326Z,43.33
2018-03-27T00:33:58.684Z,42.33
2018-03-27T00:36:38.012Z,44.43
2018-03-27T00:39:17.715Z,48.03
2018-03-27T00:44:56.304Z,50.37
2018-03-27T00:47:24.005Z,48.07
2018-03-27T00:49:51.585Z,45.17
2018-03-27T00:52:19.259Z,46.23
2018-03-27T00:54:47.106Z,48.33
2018-03-27T00:57:15.582Z,44.80
2018-03-27T00:59:43.949Z,45.53
2018-03-27T01:02:12.063Z,45.23
2018-03-27T01:04:39.818Z,47.67
2018-03-27T01:07:07.438Z,46.00
2018-03-27T01:09:35.821Z,47.73
2018-03-27T01:12:03.382Z,47.87
2018-03-27T01:14:31.742Z,45.30
2018-03-27T01:16:59.365Z,48.37
2018-03-27T01:19:26.935Z,46.90
2018-03-27T01:21:54.672Z,46.97
2018-03-27T01:24:22.238Z,47.80
2018-03-27T01:26:49.794Z,48.70
2018-03-27T01:29:17.392Z,45.23
2018-03-27T01:31:44.953Z,44.80
2018-03-27T01:34:12.724Z,44.90
2018-03-27T01:36:40.414Z,46.83
2018-03-27T01:39:08.648Z,46.50
2018-03-27T01:41:36.210Z,50.83
2018-03-27T01:44:03.874Z,53.13
2018-03-27T01:46:31.489Z,49.27
2018-03-27T01:48:59.065Z,53.97
2018-03-27T01:51:26.662Z,63.87
2018-03-27T01:53:54.218Z,56.33
2018-03-27T01:56:22.624Z,64.47
2018-03-27T01:58:50.234Z,59.90
2018-03-27T02:01:17.889Z,48.87
2018-03-27T02:03:45.462Z,47.80
2018-03-27T02:06:13.126Z,48.40
2018-03-27T02:08:40.678Z,47.97
2018-03-27T02:11:13.838Z,48.20
2018-03-27T02:13:46.938Z,50.33
2018-03-27T02:16:20.162Z,49.83
2018-03-27T02:18:54.557Z,52.43
2018-03-27T02:21:24.649Z,52.83
2018-03-27T02:26:52.805Z,51.40
2018-03-27T02:29:21.218Z,52.80
2018-03-27T02:31:48.779Z,55.60
2018-03-27T02:34:16.438Z,55.80
2018-03-27T02:36:44.008Z,61.10
2018-03-27T02:39:11.571Z,60.93
2018-03-27T02:41:39.235Z,74.07
2018-03-27T02:44:06.821Z,72.00
2018-03-27T02:46:35.163Z,63.93
2018-03-27T02:49:03.095Z,63.70
2018-03-27T02:51:30.772Z,62.77
2018-03-27T02:53:58.481Z,57.00
2018-03-27T02:56:26.071Z,58.13
2018-03-27T02:58:53.666Z,55.17
2018-03-27T03:01:21.340Z,56.57
2018-03-27T03:03:49.088Z,57.17
2018-03-27T03:06:16.654Z,60.17
2018-03-27T03:08:44.243Z,61.37
2018-03-27T03:11:11.842Z,57.80
2018-03-27T03:13:39.454Z,57.93
2018-03-27T03:16:07.250Z,63.23
2018-03-27T03:18:35.674Z,71.63
2018-03-27T03:21:03.303Z,69.70
2018-03-27T03:23:31.063Z,72.73
2018-03-27T03:25:58.987Z,69.17
2018-03-27T03:28:26.550Z,69.00
2018-03-27T03:30:54.177Z,71.67
2018-03-27T03:33:21.802Z,74.47
2018-03-27T03:35:49.367Z,73.50
2018-03-27T03:38:16.988Z,73.67
2018-03-27T03:40:44.633Z,67.90
2018-03-27T03:43:12.242Z,68.67
2018-03-27T03:45:39.810Z,70.50
2018-03-27T03:48:07.443Z,75.10
2018-03-27T03:50:35.794Z,65.30
2018-03-27T03:53:03.449Z,65.97
2018-03-27T03:55:31.102Z,70.20
2018-03-27T03:57:58.654Z,64.07
2018-03-27T04:00:26.256Z,69.07
2018-03-27T04:02:53.867Z,69.93
2018-03-27T04:05:21.420Z,103.77
2018-03-27T04:07:48.976Z,106.40
2018-03-27T04:10:16.574Z,104.17
2018-03-27T04:12:44.135Z,128.33
2018-03-27T04:15:12.521Z,127.37
2018-03-27T04:17:40.954Z,108.50
2018-03-27T04:20:08.886Z,128.40
2018-03-27T04:22:37.207Z,117.77
2018-03-27T04:25:04.926Z,151.43
2018-03-27T04:27:32.644Z,139.97
2018-03-27T04:30:00.218Z,127.30
2018-03-27T04:32:27.893Z,100.33
2018-03-27T04:34:55.463Z,102.23
2018-03-27T04:37:23.022Z,98.57
2018-03-27T04:39:50.811Z,101.83
2018-03-27T04:42:18.405Z,97.57
2018-03-27T04:44:46.128Z,99.23
2018-03-27T04:47:13.904Z,104.40
2018-03-27T04:49:41.770Z,107.67
2018-03-27T04:52:09.550Z,104.77
2018-03-27T04:54:37.210Z,107.93
2018-03-27T04:57:04.941Z,106.33
2018-03-27T04:59:32.497Z,117.60
2018-03-27T05:02:00.166Z,132.57
2018-03-27T05:04:27.905Z,122.97
2018-03-27T05:06:55.493Z,137.30
2018-03-27T05:09:23.112Z,133.97
2018-03-27T05:11:50.780Z,137.10
2018-03-27T05:14:18.446Z,130.70
2018-03-27T05:16:46.088Z,125.97
2018-03-27T05:19:13.689Z,157.52
2018-03-27T05:21:41.334Z,134.70
2018-03-27T05:24:09.085Z,126.43
2018-03-27T05:26:36.771Z,127.53
2018-03-27T05:29:04.496Z,120.60
2018-03-27T05:31:32.211Z,122.90
2018-03-27T05:33:59.817Z,123.63
2018-03-27T05:36:28.194Z,117.23
2018-03-27T05:38:55.883Z,118.50
2018-03-27T05:41:23.769Z,121.30
2018-03-27T05:43:51.770Z,118.87
2018-03-27T05:46:19.644Z,121.17
2018-03-27T05:48:47.868Z,117.67
2018-03-27T05:51:15.590Z,141.90
2018-03-27T05:53:43.603Z,149.53
2018-03-27T05:56:11.280Z,148.43
2018-03-27T05:58:38.922Z,174.83
2018-03-27T06:01:06.797Z,176.43
2018-03-27T06:03:34.431Z,173.67
2018-03-27T06:06:02.194Z,174.03
2018-03-27T06:08:29.904Z,175.47
2018-03-27T06:10:57.545Z,173.60
2018-03-27T06:13:25.202Z,161.13
2018-03-27T06:15:52.876Z,161.50
2018-03-27T06:18:20.808Z,168.57
2018-03-27T06:20:48.697Z,155.23
2018-03-27T06:23:17.567Z,165.43
2018-03-27T06:25:45.144Z,165.20
2018-03-27T06:28:12.712Z,163.07
2018-03-27T06:30:40.941Z,159.73
2018-03-27T06:33:08.692Z,178.07
2018-03-27T06:35:36.818Z,240.37
2018-03-27T06:38:04.508Z,267.50
2018-03-27T06:40:32.092Z,261.43
2018-03-27T06:42:59.651Z,267.73
2018-03-27T06:45:28.048Z,259.63
2018-03-27T06:47:56.033Z,241.83
2018-03-27T06:50:23.827Z,236.93
2018-03-27T06:52:51.780Z,229.40
2018-03-27T06:55:20.115Z,266.60
2018-03-27T06:57:47.677Z,223.80
2018-03-27T07:00:15.785Z,207.30
2018-03-27T07:02:43.337Z,224.70
2018-03-27T07:05:11.205Z,187.77
2018-03-27T07:07:38.838Z,175.50
2018-03-27T07:10:06.429Z,164.60
2018-03-27T07:12:33.976Z,190.03
2018-03-27T07:15:01.658Z,202.63
2018-03-27T07:17:29.557Z,211.47
2018-03-27T07:19:57.994Z,209.63
2018-03-27T07:22:26.055Z,212.07
2018-03-27T07:24:53.609Z,221.73
2018-03-27T07:27:21.535Z,214.47
2018-03-27T07:29:49.265Z,220.30
2018-03-27T07:32:17.258Z,205.93
2018-03-27T07:34:45.153Z,211.43
2018-03-27T07:37:13.072Z,207.70
2018-03-27T07:39:40.881Z,190.63
2018-03-27T07:42:08.526Z,254.80
2018-03-27T07:44:36.113Z,197.83
2018-03-27T07:47:03.874Z,210.30
2018-03-27T07:49:31.981Z,190.13
2018-03-27T07:52:00.001Z,195.43
2018-03-27T07:54:27.573Z,193.73
2018-03-27T07:56:55.658Z,224.60
2018-03-27T07:59:23.344Z,214.13
2018-03-27T08:01:51.451Z,184.93
2018-03-27T08:04:19.161Z,169.50
2018-03-27T08:06:47.039Z,165.57
2018-03-27T08:09:14.698Z,168.00
2018-03-27T08:11:43.047Z,161.10
2018-03-27T08:14:10.801Z,154.67
2018-03-27T08:16:38.932Z,156.00
2018-03-27T08:19:06.499Z,149.00
2018-03-27T08:21:34.306Z,134.00
2018-03-27T08:24:02.041Z,135.53
2018-03-27T08:26:29.602Z,125.73
2018-03-27T08:28:58.465Z,107.77
2018-03-27T08:31:26.264Z,99.83
2018-03-27T08:33:54.336Z,112.93
2018-03-27T08:36:22.298Z,124.53
2018-03-27T08:38:50.722Z,116.50
2018-03-27T08:41:18.567Z,95.77
2018-03-27T08:43:46.803Z,48.93
2018-03-27T08:46:14.710Z,58.03
2018-03-27T08:48:42.625Z,50.47
2018-03-27T08:51:10.198Z,40.80
2018-03-27T08:53:38.054Z,34.70
2018-03-27T08:56:06.003Z,43.93
2018-03-27T08:58:33.753Z,31.40
2018-03-27T09:01:01.373Z,38.67
2018-03-27T09:03:29.442Z,40.83
2018-03-27T09:05:57.223Z,37.50
2018-03-27T09:08:25.118Z,31.70
2018-03-27T09:10:52.788Z,29.63
2018-03-27T09:13:20.635Z,19.37
2018-03-27T09:15:48.479Z,27.57
2018-03-27T09:18:16.038Z,28.30
2018-03-27T09:20:43.783Z,27.30
2018-03-27T09:23:11.478Z,30.40
2018-03-27T09:25:39.122Z,27.97
2018-03-27T09:28:07.024Z,28.77
2018-03-27T09:30:35.034Z,28.50
2018-03-27T09:33:02.721Z,26.80
2018-03-27T09:35:30.767Z,26.63
2018-03-27T09:37:58.554Z,24.87
2018-03-27T09:40:26.106Z,27.83
2018-03-27T09:42:54.002Z,25.13
2018-03-27T09:45:21.553Z,25.20
2018-03-27T09:47:49.152Z,28.47
2018-03-27T09:50:17.677Z,26.50
2018-03-27T09:52:45.301Z,29.23
2018-03-27T09:55:13.081Z,28.97
2018-03-27T09:57:40.821Z,32.50
2018-03-27T10:00:09.353Z,35.30
2018-03-27T10:02:37.442Z,35.50
2018-03-27T10:05:05.039Z,33.70
2018-03-27T10:07:33.387Z,32.43
2018-03-27T10:10:01.392Z,28.00
2018-03-27T10:12:28.962Z,31.30
2018-03-27T10:14:56.585Z,23.53
2018-03-27T10:17:24.518Z,26.33
2018-03-27T10:19:52.189Z,25.93
2018-03-27T10:22:19.733Z,33.93
2018-03-27T10:24:47.282Z,23.33
2018-03-27T10:27:15.369Z,26.10
2018-03-27T10:29:42.914Z,26.13
2018-03-27T10:32:10.708Z,25.53
2018-03-27T10:34:38.829Z,25.70
2018-03-27T10:37:06.650Z,28.33
2018-03-27T10:39:34.490Z,27.73
2018-03-27T10:42:02.355Z,29.30
2018-03-27T10:44:30.184Z,33.03
2018-03-27T10:46:57.865Z,44.60
2018-03-27T10:49:25.719Z,38.03
2018-03-27T10:51:53.917Z,31.50
2018-03-27T10:54:21.482Z,35.10
2018-03-27T10:56:49.919Z,38.00
2018-03-27T10:59:17.739Z,40.37
2018-03-27T11:01:45.582Z,36.40
2018-03-27T11:04:13.670Z,41.73
2018-03-27T11:06:41.289Z,25.77
2018-03-27T11:09:08.889Z,29.20
2018-03-27T11:11:36.540Z,194.83
2018-03-27T11:14:04.200Z,469.10
2018-03-27T11:16:32.251Z,78.50
2018-03-27T11:19:00.079Z,58.83
2018-03-27T11:21:27.652Z,53.30
2018-03-27T11:23:56.102Z,33.57
2018-03-27T11:26:24.738Z,34.53
2018-03-27T11:28:53.013Z,40.67
2018-03-27T11:31:20.571Z,37.67
2018-03-27T11:33:49.083Z,39.57
2018-03-27T11:36:17.496Z,39.37
2018-03-27T11:38:46.000Z,38.07
2018-03-27T11:41:13.621Z,56.37
2018-03-27T11:43:41.984Z,45.10
2018-03-27T11:46:10.043Z,40.00
2018-03-27T11:48:37.693Z,42.43
2018-03-27T11:51:05.252Z,43.50
2018-03-27T11:53:32.872Z,41.47
2018-03-27T11:56:00.972Z,43.80
2018-03-27T11:58:28.806Z,41.80
2018-03-27T12:00:56.346Z,41.17
2018-03-27T12:03:24.877Z,39.63
2018-03-27T12:05:52.832Z,41.93
2018-03-27T12:08:20.532Z,44.13
2018-03-27T12:10:48.419Z,44.53
2018-03-27T12:13:17.032Z,50.57
2018-03-27T12:15:44.958Z,39.23
2018-03-27T12:18:13.481Z,39.77
2018-03-27T12:20:41.238Z,47.47
2018-03-27T12:23:08.907Z,38.07
2018-03-27T12:25:36.864Z,36.37
2018-03-27T12:28:04.467Z,36.27
2018-03-27T12:30:32.022Z,38.70
2018-03-27T12:32:59.973Z,39.10
2018-03-27T12:35:27.688Z,29.07
2018-03-27T12:37:55.669Z,41.73
2018-03-27T12:40:23.494Z,41.87
2018-03-27T12:42:51.113Z,39.37
2018-03-27T12:45:18.905Z,41.40
2018-03-27T12:47:46.617Z,40.80
2018-03-27T12:50:14.667Z,42.67
2018-03-27T12:52:42.229Z,40.33
2018-03-27T12:55:09.954Z,43.73
2018-03-27T12:57:37.592Z,34.07
2018-03-27T13:00:05.169Z,33.60
2018-03-27T13:02:32.757Z,32.30
2018-03-27T13:05:00.306Z,36.33
2018-03-27T13:07:28.286Z,35.97
2018-03-27T13:09:55.873Z,37.50
2018-03-27T13:12:23.423Z,38.33
2018-03-27T13:14:51.914Z,35.23
2018-03-27T13:17:19.578Z,36.43
2018-03-27T13:19:47.442Z,33.53
2018-03-27T13:22:15.001Z,33.67
2018-03-27T13:24:42.678Z,34.13
2018-03-27T13:27:10.230Z,31.53
2018-03-27T13:29:38.105Z,39.40
2018-03-27T13:32:05.690Z,38.57
2018-03-27T13:34:33.359Z,41.53
2018-03-27T13:37:00.994Z,37.17
2018-03-27T13:39:28.729Z,36.10
2018-03-27T13:41:56.355Z,47.77
2018-03-27T13:44:24.393Z,48.03
2018-03-27T13:46:52.058Z,37.37
2018-03-27T13:49:19.903Z,36.57
2018-03-27T13:51:47.528Z,40.60
2018-03-27T13:54:15.131Z,50.93
2018-03-27T13:56:43.323Z,39.07
2018-03-27T13:59:10.900Z,139.93
2018-03-27T14:01:38.654Z,42.57
2018-03-27T14:04:06.210Z,37.30
2018-03-27T14:06:33.778Z,37.70
2018-03-27T14:09:01.391Z,33.83
2018-03-27T14:11:28.951Z,38.03
2018-03-27T14:13:56.780Z,39.40
2018-03-27T14:16:24.502Z,39.70
2018-03-27T14:18:52.076Z,39.33
2018-03-27T14:21:19.689Z,37.67
2018-03-27T14:23:47.306Z,39.60
2018-03-27T14:26:15.058Z,45.03
2018-03-27T14:28:42.612Z,34.27
2018-03-27T14:31:10.623Z,41.57
2018-03-27T14:33:38.180Z,27.87
2018-03-27T14:36:06.050Z,29.73
2018-03-27T14:38:33.654Z,30.20
2018-03-27T14:41:01.216Z,32.70
2018-03-27T14:43:29.044Z,31.70
2018-03-27T14:45:57.052Z,34.07
2018-03-27T14:48:25.300Z,34.73
2018-03-27T14:50:53.122Z,29.00
2018-03-27T14:53:21.528Z,33.97
2018-03-27T14:55:49.178Z,27.97
2018-03-27T14:58:16.795Z,25.17
2018-03-27T15:00:44.536Z,26.20
2018-03-27T15:03:12.405Z,23.77
2018-03-27T15:05:40.078Z,26.50
2018-03-27T15:08:07.957Z,27.03
2018-03-27T15:10:35.788Z,24.87
2018-03-27T15:13:03.373Z,21.83
2018-03-27T15:15:31.063Z,21.80
2018-03-27T15:17:58.612Z,22.33
2018-03-27T15:20:26.259Z,21.17
2018-03-27T15:22:53.836Z,22.80
2018-03-27T15:25:21.526Z,22.30
2018-03-27T15:27:49.238Z,22.80
2018-03-27T15:30:16.831Z,20.53
2018-03-27T15:32:44.565Z,22.73
2018-03-27T15:35:13.044Z,19.53
2018-03-27T15:37:40.763Z,41.53
2018-03-27T15:40:08.522Z,57.33
2018-03-27T15:42:36.235Z,37.70
2018-03-27T15:45:04.095Z,23.50
2018-03-27T15:47:31.722Z,20.17
2018-03-27T15:49:59.589Z,23.77
2018-03-27T15:52:27.184Z,22.40
2018-03-27T15:54:54.841Z,28.70
2018-03-27T15:57:22.424Z,24.57
2018-03-27T15:59:50.779Z,30.10
2018-03-27T16:02:19.110Z,36.07
2018-03-27T16:04:46.659Z,39.23
2018-03-27T16:07:14.241Z,31.77
2018-03-27T16:09:41.798Z,30.10
2018-03-27T16:12:09.607Z,72.97
2018-03-27T16:14:37.205Z,41.10
2018-03-27T16:17:04.760Z,38.90
2018-03-27T16:19:32.517Z,38.80
2018-03-27T16:22:00.274Z,44.23
2018-03-27T16:24:28.887Z,38.87
2018-03-27T16:26:56.578Z,37.40
2018-03-27T16:29:24.181Z,48.77
2018-03-27T16:31:51.732Z,34.83
2018-03-27T16:34:20.046Z,34.27
2018-03-27T16:36:47.664Z,41.60
2018-03-27T16:39:16.118Z,41.67
2018-03-27T16:41:43.672Z,40.00
2018-03-27T16:44:11.654Z,34.83
2018-03-27T16:46:39.291Z,38.43
2018-03-27T16:49:06.838Z,42.33
2018-03-27T16:51:34.857Z,40.20
2018-03-27T16:54:03.172Z,42.50
2018-03-27T16:56:30.967Z,66.90
2018-03-27T16:58:58.867Z,87.07
2018-03-27T17:01:27.347Z,112.60
2018-03-27T17:03:55.762Z,78.63
2018-03-27T17:06:23.350Z,89.17
2018-03-27T17:08:52.606Z,86.67
2018-03-27T17:11:20.148Z,84.50
2018-03-27T17:13:47.991Z,96.90
2018-03-27T17:16:15.797Z,102.23
2018-03-27T17:18:43.803Z,98.03
2018-03-27T17:21:11.400Z,83.87
2018-03-27T17:23:38.961Z,85.93
2018-03-27T17:26:06.520Z,92.57
2018-03-27T17:28:34.287Z,88.93
2018-03-27T17:31:01.843Z,76.30
2018-03-27T17:33:29.412Z,68.23
2018-03-27T17:35:57.002Z,67.57
2018-03-27T17:38:24.682Z,69.07
2018-03-27T17:40:52.274Z,71.07
2018-03-27T17:43:19.873Z,103.37
2018-03-27T17:45:47.435Z,142.53
2018-03-27T17:48:15.119Z,132.03
2018-03-27T17:50:42.970Z,99.53
2018-03-27T17:53:10.528Z,99.20
2018-03-27T17:55:38.178Z,146.93
2018-03-27T17:58:05.795Z,118.13
2018-03-27T18:00:33.371Z,117.77
2018-03-27T18:03:01.254Z,123.97
2018-03-27T18:05:29.302Z,106.50
2018-03-27T18:07:56.871Z,110.53
2018-03-27T18:10:24.758Z,96.47
2018-03-27T18:12:52.647Z,65.20
2018-03-27T18:15:20.379Z,55.50
2018-03-27T18:17:48.241Z,60.37
2018-03-27T18:20:15.988Z,50.13
2018-03-27T18:22:43.594Z,58.10
2018-03-27T18:25:11.163Z,55.67
2018-03-27T18:27:38.743Z,50.03
2018-03-27T18:30:07.202Z,81.97
2018-03-27T18:32:34.766Z,73.97
2018-03-27T18:35:02.530Z,108.73
2018-03-27T18:37:30.110Z,75.53
2018-03-27T18:39:57.780Z,72.93
2018-03-27T18:42:25.536Z,52.00
2018-03-27T18:44:53.106Z,54.80
2018-03-27T18:47:20.653Z,42.83
2018-03-27T18:49:48.678Z,42.43
2018-03-27T18:52:16.342Z,60.20
2018-03-27T18:54:43.902Z,82.43
2018-03-27T18:57:11.556Z,54.17
2018-03-27T18:59:39.127Z,50.17
2018-03-27T19:02:06.740Z,68.60
2018-03-27T19:04:34.482Z,96.20
2018-03-27T19:07:02.480Z,55.40
2018-03-27T19:09:30.144Z,54.07
2018-03-27T19:11:58.098Z,101.83
2018-03-27T19:14:25.698Z,157.77
2018-03-27T19:16:53.299Z,101.47
2018-03-27T19:19:21.276Z,81.87
2018-03-27T19:21:48.838Z,104.47
2018-03-27T19:24:16.385Z,68.43
2018-03-27T19:26:44.264Z,145.10
2018-03-27T19:29:11.827Z,145.27
2018-03-27T19:31:39.550Z,85.13
2018-03-27T19:34:08.038Z,73.33
2018-03-27T19:36:36.370Z,56.07
2018-03-27T19:39:04.164Z,55.47
2018-03-27T19:41:31.751Z,58.60
2018-03-27T19:43:59.683Z,55.97
2018-03-27T19:46:27.343Z,80.53
2018-03-27T19:48:54.943Z,167.40
2018-03-27T19:51:23.083Z,159.37
2018-03-27T19:53:50.649Z,201.37
2018-03-27T19:56:18.561Z,197.03
2018-03-27T19:58:46.426Z,118.60
2018-03-27T20:01:14.024Z,107.10
2018-03-27T20:03:42.387Z,79.97
2018-03-27T20:06:10.088Z,108.37
2018-03-27T20:08:38.550Z,209.17
2018-03-27T20:11:06.374Z,143.80
2018-03-27T20:13:34.278Z,86.63
2018-03-27T20:16:02.027Z,80.57
2018-03-27T20:18:29.696Z,80.27
2018-03-27T20:20:57.422Z,88.77
2018-03-27T20:23:25.419Z,77.00
2018-03-27T20:25:53.026Z,78.67
2018-03-27T20:28:20.585Z,65.63
2018-03-27T20:30:48.298Z,51.27
2018-03-27T20:33:17.099Z,43.97
2018-03-27T20:35:44.650Z,43.57
2018-03-27T20:38:12.261Z,46.50
2018-03-27T20:40:40.023Z,46.67
2018-03-27T20:43:07.610Z,46.00
2018-03-27T20:45:35.463Z,46.40
2018-03-27T20:48:03.327Z,44.50
2018-03-27T20:50:30.873Z,46.20
2018-03-27T20:52:59.265Z,44.10
2018-03-27T20:55:26.897Z,45.10
2018-03-27T20:57:54.800Z,43.93
2018-03-27T21:00:23.063Z,45.57
2018-03-27T21:02:50.677Z,46.63
2018-03-27T21:05:18.252Z,46.60
2018-03-27T21:07:45.857Z,49.43
2018-03-27T21:10:13.454Z,50.77
2018-03-27T21:12:41.087Z,54.90
2018-03-27T21:15:09.018Z,57.10
2018-03-27T21:17:36.727Z,63.83
2018-03-27T21:20:04.534Z,63.10
2018-03-27T21:22:32.089Z,73.67
2018-03-27T21:24:59.762Z,75.10
2018-03-27T21:27:27.546Z,89.33
2018-03-27T21:29:55.094Z,81.83
2018-03-27T21:32:22.682Z,73.23
2018-03-27T21:34:50.255Z,58.50
2018-03-27T21:37:18.009Z,64.50
2018-03-27T21:39:45.874Z,101.20
2018-03-27T21:42:13.711Z,76.07
2018-03-27T21:44:41.591Z,53.47
2018-03-27T21:47:09.210Z,58.23
2018-03-27T21:49:36.932Z,50.97
2018-03-27T21:52:04.502Z,53.60
2018-03-27T21:54:32.235Z,56.07
2018-03-27T21:56:59.909Z,53.30
2018-03-27T21:59:27.466Z,53.87
2018-03-27T22:01:55.058Z,65.43
2018-03-27T22:04:23.374Z,69.80
2018-03-27T22:06:50.927Z,73.13
2018-03-27T22:09:18.654Z,72.07
2018-03-27T22:11:47.272Z,63.87
2018-03-27T22:14:14.829Z,63.10
2018-03-27T22:16:42.625Z,58.70
2018-03-27T22:19:10.310Z,60.40
2018-03-27T22:21:38.630Z,58.40
2018-03-27T22:24:06.625Z,58.70
2018-03-27T22:26:34.177Z,56.63
2018-03-27T22:29:01.920Z,54.63
2018-03-27T22:31:30.034Z,53.57
2018-03-27T22:33:58.357Z,54.87
2018-03-27T22:36:25.934Z,60.40
2018-03-27T22:38:53.680Z,62.47
2018-03-27T22:41:21.300Z,70.93
2018-03-27T22:43:48.850Z,80.13
2018-03-27T22:46:16.604Z,71.23
2018-03-27T22:48:44.162Z,62.47
2018-03-27T22:51:11.711Z,62.40
2018-03-27T22:53:39.324Z,61.20
2018-03-27T22:56:07.031Z,58.47
2018-03-27T22:58:34.575Z,54.27
2018-03-27T23:01:02.554Z,52.27
2018-03-27T23:03:30.390Z,51.67
2018-03-27T23:05:57.959Z,52.27
2018-03-27T23:08:25.738Z,50.93
2018-03-27T23:10:53.416Z,53.63
2018-03-27T23:13:20.952Z,51.50
2018-03-27T23:15:48.548Z,50.57
2018-03-27T23:18:16.090Z,51.03
2018-03-27T23:20:44.609Z,50.30
2018-03-27T23:23:12.221Z,49.93
2018-03-27T23:25:39.930Z,52.47
2018-03-27T23:28:07.478Z,55.63
2018-03-27T23:30:35.820Z,55.07
2018-03-27T23:33:03.526Z,48.03
2018-03-27T23:35:31.197Z,48.73
2018-03-27T23:37:58.948Z,48.43
2018-03-27T23:40:27.266Z,50.73
2018-03-27T23:42:54.805Z,48.57
2018-03-27T23:45:22.537Z,52.27
2018-03-27T23:47:50.929Z,50.47
2018-03-27T23:50:18.474Z,50.67
2018-03-27T23:52:47.001Z,52.77
2018-03-27T23:55:14.754Z,52.73
2018-03-27T23:57:42.653Z,49.10
